createdAt,value
2022-09-21T00:02:55.006Z,324.31
2022-09-21T00:08:02.339Z,324.98
2022-09-21T00:13:09.394Z,324.83
2022-09-21T00:18:16.604Z,324.44
2022-09-21T00:23:24.000Z,324.17
2022-09-21T00:28:31.018Z,324.30
2022-09-21T00:33:38.182Z,324.19
2022-09-21T00:38:45.451Z,323.78
2022-09-21T00:43:52.621Z,324.24
2022-09-21T00:48:59.868Z,324.69
2022-09-21T00:54:07.174Z,325.19
2022-09-21T00:59:14.346Z,325.83
2022-09-21T01:04:21.550Z,326.01
2022-09-21T01:09:28.753Z,326.08
2022-09-21T01:14:36.039Z,326.54
2022-09-21T01:19:43.229Z,326.62
2022-09-21T01:24:50.513Z,326.20
2022-09-21T01:29:57.674Z,326.51
2022-09-21T01:35:04.921Z,326.20
2022-09-21T01:40:12.180Z,326.28
2022-09-21T01:45:19.339Z,325.78
2022-09-21T01:50:26.596Z,326.36
2022-09-21T01:55:33.913Z,326.44
2022-09-21T02:00:41.140Z,326.59
2022-09-21T02:05:48.307Z,326.59
2022-09-21T02:10:55.542Z,326.57
2022-09-21T02:16:02.798Z,326.50
2022-09-21T02:21:09.876Z,327.01
2022-09-21T02:26:17.149Z,326.70
2022-09-21T02:31:24.422Z,327.04
2022-09-21T02:36:31.651Z,327.12
2022-09-21T02:41:38.936Z,327.23
2022-09-21T02:46:46.182Z,327.44
2022-09-21T02:51:53.368Z,327.06
2022-09-21T02:57:00.655Z,326.58
2022-09-21T03:02:07.803Z,326.32
2022-09-21T03:07:14.989Z,326.69
2022-09-21T03:12:22.214Z,326.49
2022-09-21T03:17:29.450Z,326.50
2022-09-21T03:22:36.638Z,326.51
2022-09-21T03:27:43.908Z,326.22
2022-09-21T03:32:51.222Z,326.45
2022-09-21T03:37:58.406Z,326.28
2022-09-21T03:43:05.678Z,325.79
2022-09-21T03:48:12.841Z,325.37
2022-09-21T03:53:20.061Z,325.28
2022-09-21T03:58:27.236Z,325.62
2022-09-21T04:03:34.452Z,325.16
2022-09-21T04:08:43.679Z,325.03
2022-09-21T04:13:48.815Z,324.96
2022-09-21T04:18:56.045Z,324.63
2022-09-21T04:24:03.213Z,324.52
2022-09-21T04:29:10.636Z,324.14
2022-09-21T04:34:17.638Z,323.50
2022-09-21T04:39:24.911Z,323.58
2022-09-21T04:44:32.222Z,322.99
2022-09-21T04:49:39.332Z,323.35
2022-09-21T04:54:46.593Z,323.05
2022-09-21T04:59:53.890Z,323.16
2022-09-21T05:05:01.119Z,323.10
2022-09-21T05:10:08.301Z,322.27
2022-09-21T05:15:15.528Z,322.13
2022-09-21T05:20:22.751Z,321.96
2022-09-21T05:25:29.932Z,321.89
2022-09-21T05:30:37.184Z,321.59
2022-09-21T05:35:44.377Z,322.16
2022-09-21T05:40:51.641Z,321.39
2022-09-21T05:45:58.955Z,321.79
2022-09-21T05:51:06.165Z,321.64
2022-09-21T05:56:13.352Z,321.10
2022-09-21T06:01:20.617Z,321.04
2022-09-21T06:06:27.860Z,321.02
2022-09-21T06:11:35.080Z,320.48
2022-09-21T06:16:42.422Z,320.53
2022-09-21T06:21:49.501Z,320.47
2022-09-21T06:26:56.760Z,320.56
2022-09-21T06:32:03.966Z,320.76
2022-09-21T06:37:11.245Z,320.68
2022-09-21T06:42:18.455Z,320.75
2022-09-21T06:47:25.773Z,320.77
2022-09-21T06:52:32.899Z,320.85
2022-09-21T06:57:40.135Z,320.89
2022-09-21T07:02:47.327Z,321.08
2022-09-21T07:07:54.477Z,321.26
2022-09-21T07:13:01.717Z,321.38
2022-09-21T07:18:08.951Z,321.01
2022-09-21T07:23:16.096Z,321.05
2022-09-21T07:28:23.296Z,320.79
2022-09-21T07:33:35.228Z,320.82
2022-09-21T07:38:37.675Z,320.51
2022-09-21T07:43:44.818Z,320.56
2022-09-21T07:48:52.069Z,320.59
2022-09-21T07:53:59.210Z,320.35
2022-09-21T07:59:06.501Z,320.38
2022-09-21T08:04:13.698Z,320.36
2022-09-21T08:09:20.864Z,320.85
2022-09-21T08:14:28.088Z,320.92
2022-09-21T08:19:35.321Z,321.15
2022-09-21T08:24:42.468Z,321.20
2022-09-21T08:29:49.730Z,321.29
2022-09-21T08:34:56.977Z,321.64
2022-09-21T08:40:04.268Z,321.89
2022-09-21T08:45:11.461Z,321.82
2022-09-21T08:50:18.813Z,321.39
2022-09-21T08:55:26.045Z,321.52
2022-09-21T09:00:33.399Z,322.39
2022-09-21T09:05:40.585Z,322.48
2022-09-21T09:10:47.954Z,323.15
2022-09-21T09:15:55.231Z,323.67
2022-09-21T09:21:02.394Z,323.64
2022-09-21T09:26:09.549Z,324.07
2022-09-21T09:31:16.812Z,324.92
2022-09-21T09:36:46.647Z,325.66
2022-09-21T09:41:31.274Z,326.03
2022-09-21T09:46:38.596Z,326.78
2022-09-21T09:51:45.956Z,327.25
2022-09-21T09:56:53.163Z,327.60
2022-09-21T10:02:00.397Z,328.63
2022-09-21T10:07:07.733Z,329.26
2022-09-21T10:12:14.806Z,330.20
2022-09-21T10:17:22.002Z,330.63
2022-09-21T10:22:29.188Z,331.06
2022-09-21T10:27:36.420Z,331.79
2022-09-21T10:32:43.683Z,332.51
2022-09-21T10:37:56.698Z,333.36
2022-09-21T10:43:03.828Z,333.80
2022-09-21T10:48:11.104Z,334.28
2022-09-21T10:53:18.299Z,335.08
2022-09-21T10:58:25.440Z,335.60
2022-09-21T11:03:32.607Z,335.62
2022-09-21T11:08:39.877Z,335.88
2022-09-21T11:13:47.007Z,336.26
2022-09-21T11:18:54.215Z,337.34
2022-09-21T11:24:01.430Z,337.16
2022-09-21T11:29:08.569Z,337.71
2022-09-21T11:34:15.848Z,338.68
2022-09-21T11:39:23.166Z,339.47
2022-09-21T11:44:30.362Z,339.75
2022-09-21T11:49:37.628Z,340.07
2022-09-21T11:54:44.871Z,341.28
2022-09-21T11:59:52.098Z,341.81
2022-09-21T12:04:59.427Z,341.71
2022-09-21T12:10:10.285Z,342.47
2022-09-21T12:15:13.948Z,342.58
2022-09-21T12:20:21.492Z,343.25
2022-09-21T12:25:28.842Z,343.28
2022-09-21T12:30:36.062Z,343.82
2022-09-21T12:35:43.408Z,343.93
2022-09-21T12:40:50.560Z,343.98
2022-09-21T12:45:57.791Z,344.66
2022-09-21T12:51:06.261Z,344.62
2022-09-21T12:56:12.148Z,345.11
2022-09-21T13:01:19.501Z,345.28
2022-09-21T13:06:26.520Z,345.74
2022-09-21T13:11:33.756Z,345.85
2022-09-21T13:16:41.030Z,346.56
2022-09-21T13:21:48.125Z,346.77
2022-09-21T13:26:55.385Z,346.71
2022-09-21T13:32:02.640Z,347.57
2022-09-21T13:37:09.850Z,348.11
2022-09-21T13:42:17.009Z,348.17
2022-09-21T13:47:24.214Z,348.80
2022-09-21T13:52:31.444Z,348.65
2022-09-21T13:57:38.656Z,349.01
2022-09-21T14:02:45.895Z,349.11
2022-09-21T14:07:52.972Z,349.63
2022-09-21T14:13:00.167Z,349.29
2022-09-21T14:18:07.376Z,349.10
2022-09-21T14:23:14.589Z,349.22
2022-09-21T14:28:21.848Z,349.04
2022-09-21T14:33:29.005Z,348.82
2022-09-21T14:38:36.227Z,349.21
2022-09-21T14:43:43.407Z,349.32
2022-09-21T14:48:50.634Z,349.13
2022-09-21T14:53:57.942Z,349.22
2022-09-21T14:59:05.097Z,348.78
2022-09-21T15:04:12.336Z,349.88
2022-09-21T15:09:19.580Z,349.64
2022-09-21T15:14:26.839Z,349.91
2022-09-21T15:19:34.065Z,350.07
2022-09-21T15:24:41.359Z,349.71
2022-09-21T15:29:48.633Z,350.17
2022-09-21T15:34:56.087Z,350.01
2022-09-21T15:40:03.552Z,350.48
2022-09-21T15:45:10.716Z,350.55
2022-09-21T15:50:17.959Z,350.50
2022-09-21T15:55:25.152Z,349.82
2022-09-21T16:00:32.543Z,349.67
2022-09-21T16:05:39.879Z,349.02
2022-09-21T16:10:47.116Z,349.17
2022-09-21T16:15:54.498Z,348.54
2022-09-21T16:21:01.578Z,348.46
2022-09-21T16:26:08.793Z,348.39
2022-09-21T16:31:16.132Z,347.73
2022-09-21T16:36:23.269Z,347.30
2022-09-21T16:41:30.454Z,347.00
2022-09-21T16:46:37.694Z,346.45
2022-09-21T16:51:44.864Z,346.20
2022-09-21T16:56:52.073Z,346.14
2022-09-21T17:01:59.370Z,345.75
2022-09-21T17:07:06.492Z,345.77
2022-09-21T17:12:13.684Z,345.32
2022-09-21T17:17:20.908Z,344.61
2022-09-21T17:22:28.112Z,344.42
2022-09-21T17:27:35.297Z,343.75
2022-09-21T17:32:42.512Z,343.73
2022-09-21T17:37:49.739Z,343.46
2022-09-21T17:42:56.912Z,342.21
2022-09-21T17:48:04.130Z,342.20
2022-09-21T17:53:11.317Z,341.67
2022-09-21T17:58:18.568Z,340.54
2022-09-21T18:03:25.803Z,339.97
2022-09-21T18:08:33.039Z,339.68
2022-09-21T18:13:40.259Z,339.64
2022-09-21T18:18:47.504Z,339.08
2022-09-21T18:23:54.698Z,338.66
2022-09-21T18:29:12.627Z,338.03
2022-09-21T18:34:09.377Z,338.34
2022-09-21T18:39:16.966Z,337.61
2022-09-21T18:44:24.467Z,336.88
2022-09-21T18:49:31.714Z,336.17
2022-09-21T18:54:38.904Z,336.02
2022-09-21T18:59:46.114Z,335.80
2022-09-21T19:04:53.351Z,335.56
2022-09-21T19:10:00.827Z,335.67
2022-09-21T19:15:12.115Z,335.55
2022-09-21T19:20:15.391Z,335.35
2022-09-21T19:25:22.640Z,335.40
2022-09-21T19:30:30.415Z,334.90
2022-09-21T19:35:37.673Z,334.80
2022-09-21T19:40:44.971Z,334.81
2022-09-21T19:45:52.285Z,334.24
2022-09-21T19:50:59.399Z,334.52
2022-09-21T19:56:06.587Z,334.82
2022-09-21T20:01:13.824Z,334.74
2022-09-21T20:06:20.985Z,334.77
2022-09-21T20:11:28.141Z,334.94
2022-09-21T20:16:35.433Z,335.29
2022-09-21T20:21:42.608Z,334.73
2022-09-21T20:26:49.841Z,335.69
2022-09-21T20:31:57.113Z,335.20
2022-09-21T20:37:04.392Z,334.64
2022-09-21T20:42:11.530Z,334.67
2022-09-21T20:47:18.694Z,334.35
2022-09-21T20:52:25.854Z,334.16
2022-09-21T20:57:33.136Z,333.38
2022-09-21T21:02:40.376Z,333.24
2022-09-21T21:07:47.675Z,333.16
2022-09-21T21:12:54.850Z,333.24
2022-09-21T21:18:02.060Z,333.27
2022-09-21T21:23:09.282Z,332.75
2022-09-21T21:28:16.494Z,332.33
2022-09-21T21:33:23.668Z,332.71
2022-09-21T21:38:31.621Z,332.23
2022-09-21T21:43:38.820Z,331.93
2022-09-21T21:48:46.112Z,332.27
2022-09-21T21:53:53.304Z,332.48
2022-09-21T21:59:00.482Z,332.28
2022-09-21T22:04:07.819Z,331.93
2022-09-21T22:09:15.057Z,331.88
2022-09-21T22:14:22.157Z,331.84
2022-09-21T22:19:29.382Z,332.35
2022-09-21T22:24:36.644Z,332.55
2022-09-21T22:29:43.847Z,333.12
2022-09-21T22:34:51.079Z,332.53
2022-09-21T22:39:58.334Z,332.68
2022-09-21T22:45:05.564Z,332.84
2022-09-21T22:50:12.770Z,332.52
2022-09-21T22:55:20.024Z,332.50
2022-09-21T23:00:27.321Z,332.84
2022-09-21T23:05:34.477Z,332.89
2022-09-21T23:10:41.729Z,332.54
2022-09-21T23:15:48.914Z,332.18
2022-09-21T23:20:56.128Z,332.16
2022-09-21T23:26:03.394Z,332.54
2022-09-21T23:31:10.631Z,332.68
2022-09-21T23:36:17.860Z,332.64
2022-09-21T23:41:25.205Z,332.66
2022-09-21T23:46:32.483Z,333.13
2022-09-21T23:51:39.577Z,333.17
2022-09-21T23:56:46.878Z,333.33
